createdAt,value
2016-08-18T06:37:02.639Z,615
2016-08-18T06:38:03.295Z,635
2016-08-18T06:39:01.960Z,655
2016-08-18T06:40:03.513Z,685
2016-08-18T06:41:03.943Z,720
2016-08-18T06:42:02.891Z,780
2016-08-18T06:43:01.792Z,820
2016-08-18T06:44:02.501Z,985
2016-08-18T06:45:03.870Z,1265
2016-08-18T06:46:02.838Z,1350
2016-08-18T06:47:05.004Z,1320
2016-08-18T06:48:04.331Z,1285
2016-08-18T06:49:05.080Z,1250
2016-08-18T06:50:03.663Z,1155
2016-08-18T06:51:04.058Z,1005
2016-08-18T06:52:04.305Z,1035
2016-08-18T06:53:03.681Z,1185
2016-08-18T06:54:02.422Z,1310
2016-08-18T06:55:03.538Z,1400
2016-08-18T06:56:05.458Z,1405
2016-08-18T06:57:03.007Z,1685
2016-08-18T06:58:03.567Z,1600
2016-08-18T06:59:04.226Z,1595
2016-08-18T07:00:03.832Z,1455
2016-08-18T07:01:02.746Z,1475
2016-08-18T07:02:05.594Z,1560
2016-08-18T07:03:02.463Z,1625
2016-08-18T07:04:03.931Z,1690
2016-08-18T07:05:02.775Z,1660
2016-08-18T07:06:03.364Z,1605
2016-08-18T07:07:04.338Z,1600
2016-08-18T07:08:03.760Z,1645
2016-08-18T07:09:04.225Z,1630
2016-08-18T07:10:03.480Z,1630
2016-08-18T07:11:03.065Z,1750
2016-08-18T07:12:07.925Z,1720
2016-08-18T07:13:03.175Z,1715
2016-08-18T07:14:02.640Z,1745
2016-08-18T07:15:04.198Z,1735
2016-08-18T07:16:04.166Z,1685
2016-08-18T07:17:04.256Z,1730
2016-08-18T07:18:04.252Z,1805
2016-08-18T07:19:04.044Z,1750
2016-08-18T07:20:05.072Z,1730
2016-08-18T07:21:04.848Z,1855
2016-08-18T07:22:03.897Z,1835
2016-08-18T07:23:04.732Z,1765
2016-08-18T07:24:05.562Z,1840
2016-08-18T07:25:06.985Z,1725
2016-08-18T07:26:05.373Z,1655
2016-08-18T07:27:08.662Z,1740
2016-08-18T07:28:04.733Z,1910
2016-08-18T07:29:05.482Z,1920
2016-08-18T07:30:05.739Z,1770
2016-08-18T07:31:05.380Z,1755
2016-08-18T07:32:04.287Z,1910
2016-08-18T07:33:06.219Z,1965
2016-08-18T07:34:03.846Z,1815
2016-08-18T07:35:06.274Z,1925
2016-08-18T07:36:21.534Z,1885
2016-08-18T07:37:07.355Z,1960
2016-08-18T07:38:04.569Z,2025
2016-08-18T07:39:04.051Z,1885
2016-08-18T07:40:06.971Z,1845
2016-08-18T07:41:07.829Z,1965
2016-08-18T07:42:05.078Z,1975
2016-08-18T07:43:04.943Z,2040
2016-08-18T07:44:05.168Z,1925
2016-08-18T07:45:07.152Z,2055
2016-08-18T07:46:05.166Z,1855
2016-08-18T07:47:04.898Z,1955
2016-08-18T07:48:07.408Z,2050
2016-08-18T07:49:04.942Z,2095
2016-08-18T07:50:08.207Z,2100
2016-08-18T07:51:14.782Z,2045
2016-08-18T07:52:04.275Z,1975
2016-08-18T07:53:04.815Z,2025
2016-08-18T07:54:04.859Z,2175
2016-08-18T07:55:05.570Z,2195
2016-08-18T07:56:05.832Z,2155
2016-08-18T07:57:05.458Z,2015
2016-08-18T07:58:06.664Z,2055
2016-08-18T07:59:04.322Z,2155
2016-08-18T08:00:10.168Z,1990
2016-08-18T08:01:04.002Z,2070
2016-08-18T08:02:07.007Z,2195
2016-08-18T08:03:06.486Z,2170
2016-08-18T08:04:04.753Z,2105
2016-08-18T08:05:07.061Z,2210
2016-08-18T08:06:05.097Z,2245
2016-08-18T08:07:05.244Z,2205
2016-08-18T08:08:04.761Z,2275
2016-08-18T08:09:06.968Z,2345
2016-08-18T08:10:06.915Z,2305
2016-08-18T08:11:05.134Z,2140
2016-08-18T08:12:06.778Z,2255
2016-08-18T08:13:04.675Z,2410
2016-08-18T08:14:05.639Z,2285
2016-08-18T08:15:10.837Z,2330
2016-08-18T08:16:06.650Z,2300
2016-08-18T08:17:05.914Z,2220
2016-08-18T08:18:06.929Z,2115
2016-08-18T08:19:07.822Z,2380
2016-08-18T08:20:06.606Z,2340
2016-08-18T08:21:05.991Z,2345
2016-08-18T08:22:05.878Z,2355
2016-08-18T08:23:05.597Z,2370
2016-08-18T08:24:07.392Z,2230
2016-08-18T08:25:06.952Z,2465
2016-08-18T08:26:05.309Z,2465
2016-08-18T08:27:17.562Z,2330
2016-08-18T08:28:05.729Z,2325
2016-08-18T08:29:07.181Z,2370
2016-08-18T08:30:08.261Z,2230
2016-08-18T08:31:07.802Z,2395
2016-08-18T08:32:06.959Z,2540
2016-08-18T08:33:07.920Z,2590
2016-08-18T08:34:07.248Z,2520
2016-08-18T08:35:06.480Z,2580
2016-08-18T08:36:07.808Z,2485
2016-08-18T08:37:08.928Z,2610
2016-08-18T08:38:07.722Z,2530
2016-08-18T08:39:08.084Z,2490
2016-08-18T08:40:13.596Z,2695
2016-08-18T08:41:07.494Z,2765
2016-08-18T08:42:07.874Z,2515
2016-08-18T08:43:06.000Z,2560
2016-08-18T08:44:07.697Z,2565
2016-08-18T08:45:09.126Z,2495
2016-08-18T08:46:07.234Z,2685
2016-08-18T08:47:07.460Z,2575
2016-08-18T08:48:05.609Z,2440
2016-08-18T08:49:07.169Z,2585
2016-08-18T08:50:04.991Z,2545
2016-08-18T08:51:07.486Z,2565
2016-08-18T08:52:08.051Z,2785
2016-08-18T08:53:07.480Z,2670
2016-08-18T08:54:08.637Z,2745
2016-08-18T08:55:08.423Z,2845
2016-08-18T08:56:05.601Z,2675
2016-08-18T08:57:07.460Z,2520
2016-08-18T08:58:06.925Z,2605
2016-08-18T08:59:08.668Z,2655
2016-08-18T09:00:08.182Z,2795
2016-08-18T09:01:09.059Z,2725
2016-08-18T09:02:08.152Z,2500
2016-08-18T09:03:21.910Z,2820
2016-08-18T09:04:08.154Z,2725
2016-08-18T09:05:08.286Z,2645
2016-08-18T09:06:08.756Z,2820
2016-08-18T09:07:08.127Z,2770
2016-08-18T09:08:06.930Z,2740
2016-08-18T09:09:05.874Z,2725
2016-08-18T09:10:07.202Z,2605
2016-08-18T09:11:07.196Z,2790
2016-08-18T09:12:07.103Z,2685
2016-08-18T09:13:05.013Z,2475
2016-08-18T09:14:07.886Z,2605
2016-08-18T09:15:07.212Z,2885
2016-08-18T09:16:06.892Z,2850
2016-08-18T09:17:09.254Z,2785
2016-08-18T09:18:07.557Z,2630
2016-08-18T09:19:07.846Z,2575
2016-08-18T09:20:09.019Z,2615
2016-08-18T09:21:08.360Z,2585
2016-08-18T09:22:08.639Z,2725
2016-08-18T09:23:09.755Z,2705
2016-08-18T09:24:09.265Z,2565
2016-08-18T09:25:11.372Z,2415
2016-08-18T09:26:08.678Z,2475
2016-08-18T09:27:06.783Z,2225
2016-08-18T09:28:08.495Z,2350
2016-08-18T09:29:08.665Z,2425
2016-08-18T09:30:08.727Z,2825
2016-08-18T09:31:11.760Z,2685
2016-08-18T09:32:07.956Z,2830
2016-08-18T09:33:09.024Z,2615
2016-08-18T09:34:09.747Z,2735
2016-08-18T09:35:11.901Z,2730
2016-08-18T09:36:08.701Z,2515
2016-08-18T09:37:07.149Z,2595
2016-08-18T09:38:08.075Z,2640
2016-08-18T09:39:09.658Z,2805
2016-08-18T09:40:10.134Z,2920
2016-08-18T09:41:08.641Z,3050
2016-08-18T09:42:08.104Z,2835
2016-08-18T09:43:08.026Z,2975
2016-08-18T09:44:09.440Z,3095
2016-08-18T09:45:08.631Z,2750
2016-08-18T09:46:07.523Z,2840
2016-08-18T09:47:07.710Z,2950
2016-08-18T09:48:10.358Z,2865
2016-08-18T09:49:08.364Z,2870
2016-08-18T09:50:13.950Z,2770
2016-08-18T09:51:08.411Z,2755
2016-08-18T09:52:09.409Z,2785
2016-08-18T09:53:10.507Z,2855
2016-08-18T09:54:09.311Z,2865
2016-08-18T09:55:10.358Z,2895
2016-08-18T09:56:09.200Z,2860
2016-08-18T09:57:11.266Z,2880
2016-08-18T09:58:23.477Z,3080
2016-08-18T09:59:09.444Z,2935
2016-08-18T10:00:08.580Z,2850
2016-08-18T10:01:08.747Z,2905
2016-08-18T10:02:08.341Z,2840
2016-08-18T10:03:08.701Z,2815
2016-08-18T10:04:10.151Z,2870
2016-08-18T10:05:13.256Z,2810
2016-08-18T10:06:10.527Z,2650
2016-08-18T10:07:08.570Z,2795
2016-08-18T10:08:09.515Z,2840
2016-08-18T10:09:08.684Z,2930
2016-08-18T10:10:40.830Z,3010
2016-08-18T10:11:09.908Z,3050
2016-08-18T10:12:09.616Z,3005
2016-08-18T10:13:09.611Z,2990
2016-08-18T10:14:22.355Z,3070
2016-08-18T10:15:11.198Z,3220
2016-08-18T10:16:10.229Z,2860
2016-08-18T10:17:08.923Z,2930
2016-08-18T10:18:08.942Z,3035
2016-08-18T10:19:10.438Z,3090
2016-08-18T10:20:10.578Z,2980
2016-08-18T10:21:10.503Z,2795
2016-08-18T10:22:11.140Z,2925
2016-08-18T10:23:08.358Z,2885
2016-08-18T10:24:10.305Z,3040
2016-08-18T10:25:09.200Z,3065
2016-08-18T10:26:09.407Z,2755
2016-08-18T10:27:10.242Z,3060
2016-08-18T10:28:10.625Z,3060
2016-08-18T10:29:10.083Z,2830
2016-08-18T10:30:09.993Z,2855
2016-08-18T10:31:10.316Z,3030
2016-08-18T10:32:11.071Z,3170
2016-08-18T10:33:10.612Z,2945
2016-08-18T10:34:10.530Z,2755
2016-08-18T10:35:11.070Z,2845
2016-08-18T10:36:10.802Z,2955
2016-08-18T10:37:10.290Z,3045
2016-08-18T10:38:10.815Z,2855
2016-08-18T10:39:11.136Z,2735
2016-08-18T10:40:12.783Z,2740
2016-08-18T10:41:10.119Z,2875
2016-08-18T10:42:11.190Z,2885
2016-08-18T10:43:10.431Z,2965
2016-08-18T10:44:10.098Z,2890
2016-08-18T10:45:12.572Z,2900
2016-08-18T10:46:10.418Z,3000
2016-08-18T10:47:12.221Z,3040
2016-08-18T10:48:11.309Z,3045
2016-08-18T10:49:11.792Z,3285
2016-08-18T10:50:13.551Z,4025
2016-08-18T10:51:12.088Z,3055
2016-08-18T10:52:11.914Z,2885
2016-08-18T10:53:10.790Z,4665
2016-08-18T10:54:13.862Z,4670
2016-08-18T10:55:11.873Z,3575
2016-08-18T10:56:12.883Z,2835
2016-08-18T10:57:11.662Z,2125
2016-08-18T10:58:11.037Z,3235
2016-08-18T10:59:12.101Z,3510
2016-08-18T11:00:11.980Z,3315
2016-08-18T11:01:12.168Z,2950
2016-08-18T11:02:13.625Z,3430
2016-08-18T11:03:11.795Z,3385
2016-08-18T11:04:11.200Z,2455
2016-08-18T11:05:13.330Z,2310
2016-08-18T11:06:12.102Z,2900
2016-08-18T11:07:12.834Z,2895
2016-08-18T11:08:12.262Z,2805
2016-08-18T11:09:12.589Z,2560
2016-08-18T11:10:14.165Z,2625
2016-08-18T11:11:10.096Z,4115
2016-08-18T11:12:12.629Z,4135
2016-08-18T11:13:12.398Z,2715
2016-08-18T11:14:12.656Z,2700
2016-08-18T11:15:12.217Z,2270
2016-08-18T11:16:12.386Z,2745
2016-08-18T11:17:14.355Z,2985
2016-08-18T11:18:10.629Z,3995
2016-08-18T11:19:12.076Z,3305
2016-08-18T11:20:12.588Z,3455
2016-08-18T11:21:12.139Z,3345
2016-08-18T11:22:14.195Z,3580
2016-08-18T11:23:13.106Z,3850
2016-08-18T11:24:11.111Z,2750
2016-08-18T11:25:10.630Z,2905
2016-08-18T11:26:11.435Z,3470
2016-08-18T11:27:12.790Z,3230
2016-08-18T11:28:13.824Z,3130
2016-08-18T11:29:12.459Z,2900
2016-08-18T11:30:13.206Z,3185
2016-08-18T11:31:11.295Z,2790
2016-08-18T11:32:13.518Z,2305
2016-08-18T11:33:13.399Z,3310
2016-08-18T11:34:13.372Z,3595
2016-08-18T11:35:13.547Z,3525
2016-08-18T11:36:12.231Z,3955
2016-08-18T11:37:11.295Z,3645
2016-08-18T11:38:14.403Z,3225
2016-08-18T11:39:15.008Z,3245
2016-08-18T11:40:12.092Z,2770
2016-08-18T11:41:11.890Z,3030
2016-08-18T11:42:13.729Z,2640
2016-08-18T11:43:12.696Z,2875
2016-08-18T11:44:12.693Z,2925
2016-08-18T11:45:13.969Z,2975
2016-08-18T11:46:12.519Z,3455
2016-08-18T11:47:13.736Z,3325
2016-08-18T11:48:13.333Z,2685
2016-08-18T11:49:12.875Z,3060
2016-08-18T11:50:19.382Z,2385
2016-08-18T11:51:16.046Z,2865
2016-08-18T11:52:13.637Z,2690
2016-08-18T11:53:13.961Z,3105
2016-08-18T11:54:13.266Z,3150
2016-08-18T11:55:16.023Z,2090
2016-08-18T11:56:12.133Z,3250
2016-08-18T12:11:56.630Z,2895
2016-08-18T12:12:56.254Z,1935
2016-08-18T12:13:57.992Z,2485
2016-08-18T12:14:59.005Z,2620
2016-08-18T12:15:57.701Z,2985
2016-08-18T12:16:58.609Z,3210
2016-08-18T12:17:59.017Z,2365
2016-08-18T12:18:56.777Z,2340
2016-08-18T12:19:59.576Z,3090
2016-08-18T12:20:56.146Z,2850
2016-08-18T12:21:58.530Z,3035
2016-08-18T12:22:58.754Z,2740
2016-08-18T12:23:59.370Z,2585
2016-08-18T12:24:57.884Z,2705
2016-08-18T12:25:58.173Z,2995
2016-08-18T12:26:58.675Z,3455
2016-08-18T12:27:57.961Z,3440
2016-08-18T12:29:01.972Z,2970
2016-08-18T12:29:58.843Z,2680
2016-08-18T12:30:56.586Z,2995
2016-08-18T12:31:57.425Z,3600
2016-08-18T12:32:56.715Z,3280
2016-08-18T12:33:58.285Z,3010
2016-08-18T12:34:57.414Z,3390
2016-08-18T12:35:59.208Z,3205
2016-08-18T12:36:59.727Z,3615
2016-08-18T12:37:56.953Z,3480
2016-08-18T12:39:01.517Z,3185
2016-08-18T12:39:58.863Z,3685
2016-08-18T12:40:59.325Z,3215
2016-08-18T12:41:57.314Z,2285
2016-08-18T12:42:59.698Z,2915
2016-08-18T12:43:59.461Z,3535
2016-08-18T12:45:02.599Z,3540
2016-08-18T12:45:59.065Z,3570
2016-08-18T12:46:57.968Z,2630
2016-08-18T12:47:58.865Z,2875
2016-08-18T12:48:58.958Z,2685
2016-08-18T12:49:58.556Z,3070
2016-08-18T12:50:58.442Z,3660
2016-08-18T12:51:59.191Z,2940
2016-08-18T12:52:59.629Z,2195
2016-08-18T12:54:00.007Z,2055
2016-08-18T12:55:01.232Z,2435
2016-08-18T12:56:00.526Z,3100
2016-08-18T12:57:00.166Z,3410
2016-08-18T12:57:58.999Z,3195
2016-08-18T12:58:59.046Z,3220
2016-08-18T12:59:59.422Z,3515
2016-08-18T13:00:59.048Z,3000
2016-08-18T13:01:59.206Z,2475
2016-08-18T13:03:00.897Z,2610
2016-08-18T13:04:00.806Z,2195
2016-08-18T13:05:00.978Z,2570
2016-08-18T13:05:59.814Z,2750
2016-08-18T13:06:59.429Z,2695
2016-08-18T13:07:59.729Z,2675
2016-08-18T13:08:59.177Z,2275
2016-08-18T13:10:00.539Z,1980
2016-08-18T13:11:00.876Z,2270
2016-08-18T13:11:59.808Z,2315
2016-08-18T13:13:01.861Z,2405
2016-08-18T13:13:59.869Z,2510
2016-08-18T13:14:59.718Z,2620
2016-08-18T13:16:01.933Z,2715
2016-08-18T13:17:01.487Z,2340
2016-08-18T13:18:00.889Z,2640
2016-08-18T13:18:59.849Z,2590
2016-08-18T13:20:00.617Z,2705
2016-08-18T13:20:59.989Z,2865
2016-08-18T13:22:02.552Z,2740
2016-08-18T13:23:00.385Z,2645
2016-08-18T13:24:02.892Z,3510
2016-08-18T13:24:59.130Z,3265
2016-08-18T13:25:59.502Z,3070
2016-08-18T13:26:59.276Z,2590
2016-08-18T13:28:00.567Z,2250
2016-08-18T13:29:01.281Z,2255
2016-08-18T13:30:00.431Z,2080
2016-08-18T13:31:00.718Z,2175
2016-08-18T13:32:01.544Z,2630
2016-08-18T13:33:02.990Z,2985
2016-08-18T13:34:00.420Z,2740
2016-08-18T13:35:01.950Z,2545
2016-08-18T13:36:03.641Z,2570
2016-08-18T13:37:00.485Z,2455
2016-08-18T13:38:01.282Z,2290
2016-08-18T13:38:59.976Z,2565
2016-08-18T13:40:00.368Z,2920
2016-08-18T13:41:00.979Z,2830
2016-08-18T13:42:01.752Z,2530
2016-08-18T13:42:59.357Z,2395
2016-08-18T13:44:01.815Z,2665
2016-08-18T13:45:02.199Z,2440
2016-08-18T13:46:01.612Z,2275
2016-08-18T13:47:01.739Z,2895
2016-08-18T13:48:00.155Z,2865
2016-08-18T13:49:03.766Z,2360
2016-08-18T13:50:00.739Z,2370
2016-08-18T13:51:01.819Z,2435
2016-08-18T13:52:01.275Z,2325
2016-08-18T13:53:02.386Z,2690
2016-08-18T13:54:02.939Z,2800
2016-08-18T13:55:02.923Z,2535
2016-08-18T13:56:01.966Z,2445
2016-08-18T13:57:01.474Z,2425
2016-08-18T13:58:02.932Z,2320
2016-08-18T13:59:02.944Z,2330
2016-08-18T14:00:04.550Z,2260
2016-08-18T14:01:02.792Z,2330
2016-08-18T14:02:01.951Z,2425
2016-08-18T14:03:03.300Z,2455
2016-08-18T14:04:03.531Z,2440
2016-08-18T14:05:02.223Z,2460
2016-08-18T14:06:03.192Z,2350
2016-08-18T14:07:02.695Z,2385
2016-08-18T14:08:02.656Z,2485
2016-08-18T14:09:02.898Z,2465
2016-08-18T14:10:02.117Z,2480
2016-08-18T14:11:02.849Z,2330
2016-08-18T14:12:02.999Z,2445
2016-08-18T14:13:02.929Z,2515
2016-08-18T14:14:03.284Z,2385
2016-08-18T14:15:02.430Z,2540
2016-08-18T14:16:03.435Z,2655
2016-08-18T14:17:04.106Z,2520
2016-08-18T14:18:01.702Z,2550
2016-08-18T14:19:03.261Z,2610
2016-08-18T14:20:03.377Z,2400
2016-08-18T14:21:02.662Z,2365
2016-08-18T14:22:02.961Z,2480
2016-08-18T14:23:02.530Z,2410
2016-08-18T14:24:02.476Z,2385
2016-08-18T14:25:01.342Z,2430
2016-08-18T14:26:02.456Z,2485
2016-08-18T14:27:05.095Z,2555
2016-08-18T14:28:03.382Z,2365
2016-08-18T14:29:03.296Z,2455
2016-08-18T14:30:02.788Z,2490
2016-08-18T14:31:03.853Z,2465
2016-08-18T14:32:02.461Z,2370
2016-08-18T14:33:02.888Z,2265
2016-08-18T14:34:03.429Z,2295
2016-08-18T14:35:02.717Z,2280
2016-08-18T14:36:03.963Z,2280
2016-08-18T14:37:04.721Z,2250
2016-08-18T14:38:02.679Z,2155
2016-08-18T14:39:04.424Z,2100
2016-08-18T14:40:03.193Z,2230
2016-08-18T14:41:06.032Z,2195
2016-08-18T14:42:02.702Z,2120
2016-08-18T14:43:03.684Z,2305
2016-08-18T14:44:03.231Z,2285
2016-08-18T14:45:05.157Z,2250
2016-08-18T14:46:03.638Z,2245
2016-08-18T14:47:04.091Z,2095
2016-08-18T14:48:04.580Z,2040
2016-08-18T14:49:04.011Z,2190
2016-08-18T14:50:03.529Z,2215
2016-08-18T14:51:02.844Z,2160
2016-08-18T14:52:02.137Z,2275
2016-08-18T14:53:04.513Z,2200
2016-08-18T14:54:04.021Z,2175
2016-08-18T14:55:03.357Z,2220
2016-08-18T14:56:02.446Z,1990
2016-08-18T14:57:04.026Z,2030
2016-08-18T14:58:03.202Z,1910
2016-08-18T14:59:04.194Z,1730
2016-08-18T15:00:05.244Z,1830
2016-08-18T15:01:06.025Z,2050
2016-08-18T15:02:05.713Z,2105
2016-08-18T15:03:05.011Z,2055
2016-08-18T15:04:05.026Z,1985
2016-08-18T15:05:03.632Z,1945
2016-08-18T15:06:06.115Z,1860
2016-08-18T15:07:04.865Z,1885
2016-08-18T15:08:05.021Z,1785
2016-08-18T15:09:04.576Z,1730
2016-08-18T15:10:05.265Z,1830
2016-08-18T15:11:02.881Z,1790
2016-08-18T15:12:06.392Z,1785
2016-08-18T15:13:04.208Z,1820
2016-08-18T15:14:07.104Z,1975
2016-08-18T15:15:03.991Z,1905
2016-08-18T15:16:05.052Z,1790
2016-08-18T15:17:05.271Z,1775
2016-08-18T15:18:05.328Z,1895
2016-08-18T15:19:03.920Z,1835
2016-08-18T15:20:05.091Z,1805
2016-08-18T15:21:04.968Z,1845
2016-08-18T15:22:05.057Z,1780
2016-08-18T15:23:06.851Z,1800
2016-08-18T15:24:04.801Z,1915
2016-08-18T15:25:06.784Z,1810
2016-08-18T15:26:04.687Z,1775
2016-08-18T15:27:05.478Z,1790
2016-08-18T15:28:06.915Z,1775
2016-08-18T15:29:06.590Z,1765
2016-08-18T15:30:07.663Z,1795
2016-08-18T15:31:06.326Z,1765
2016-08-18T15:32:04.285Z,1710
2016-08-18T15:33:06.234Z,1680
2016-08-18T15:34:06.161Z,1700
2016-08-18T15:35:05.745Z,1720
2016-08-18T15:36:06.712Z,1675
2016-08-18T15:37:05.430Z,1605
2016-08-18T15:38:05.929Z,1645
2016-08-18T15:39:05.688Z,1720
2016-08-18T15:40:06.074Z,1705
2016-08-18T15:41:05.111Z,1655
2016-08-18T15:42:06.196Z,1650
2016-08-18T15:43:04.641Z,1650
2016-08-18T15:44:07.203Z,1640
2016-08-18T15:45:04.051Z,1575
2016-08-18T15:46:06.682Z,1615
2016-08-18T15:47:05.143Z,1545
2016-08-18T15:48:05.299Z,1550
2016-08-18T15:49:06.012Z,1540
2016-08-18T15:50:07.770Z,1495
2016-08-18T15:51:04.924Z,1475
2016-08-18T15:52:05.869Z,1570
2016-08-18T15:53:07.586Z,1525
2016-08-18T15:54:05.674Z,1520
2016-08-18T15:55:05.489Z,1465
2016-08-18T15:56:06.509Z,1435
2016-08-18T15:57:08.506Z,1520
2016-08-18T15:58:05.266Z,1565
2016-08-18T15:59:06.943Z,1480
2016-08-18T16:00:04.992Z,1410
2016-08-18T16:01:07.252Z,1425
2016-08-18T16:02:07.162Z,1495
2016-08-18T16:03:06.150Z,1465
2016-08-18T16:04:06.823Z,1500
2016-08-18T16:05:08.337Z,1400
2016-08-18T16:06:05.768Z,1435
2016-08-18T16:07:05.875Z,1390
2016-08-18T16:08:12.210Z,1325
2016-08-18T16:09:04.418Z,1285
2016-08-18T16:10:06.850Z,1290
2016-08-18T16:11:05.214Z,1225
2016-08-18T16:12:07.408Z,1280
2016-08-18T16:13:07.535Z,1300
2016-08-18T16:14:07.670Z,1245
2016-08-18T16:15:06.409Z,1215
2016-08-18T16:16:05.798Z,1210
2016-08-18T16:17:07.392Z,1225
2016-08-18T16:18:06.315Z,1195
2016-08-18T16:19:07.949Z,1200
2016-08-18T16:20:06.806Z,1115
2016-08-18T16:21:07.209Z,1140
2016-08-18T16:22:06.540Z,1170
2016-08-18T16:23:07.322Z,1155
2016-08-18T16:24:07.719Z,1170
2016-08-18T16:25:08.283Z,1175
2016-08-18T16:26:06.728Z,1150
2016-08-18T16:27:07.291Z,1145
2016-08-18T16:28:06.306Z,1150
2016-08-18T16:29:07.355Z,1120
2016-08-18T16:30:08.179Z,1110
2016-08-18T16:31:07.515Z,1125
2016-08-18T16:32:07.350Z,1130
2016-08-18T16:33:07.834Z,1125
2016-08-18T16:34:06.251Z,1070
2016-08-18T16:35:07.625Z,1125
2016-08-18T16:36:07.838Z,1170
2016-08-18T16:37:07.203Z,1125
2016-08-18T16:38:07.627Z,1110
2016-08-18T16:39:07.737Z,1100
2016-08-18T16:40:08.791Z,1065
2016-08-18T16:41:07.242Z,1055
2016-08-18T16:42:08.259Z,1060
2016-08-18T16:43:08.396Z,965
2016-08-18T16:44:07.434Z,760
2016-08-18T16:45:08.293Z,590
2016-08-18T16:46:06.327Z,540
2016-08-18T16:47:08.505Z,520
2016-08-18T16:48:07.176Z,510
2016-08-18T16:49:08.564Z,495
2016-08-18T16:50:09.158Z,485
2016-08-18T16:51:08.582Z,475
2016-08-18T16:52:09.109Z,470
2016-08-18T16:53:07.961Z,470
2016-08-18T16:54:08.659Z,470
2016-08-18T16:55:07.444Z,470
2016-08-18T16:56:07.733Z,465
2016-08-18T16:57:07.972Z,455
2016-08-18T16:58:10.845Z,445
2016-08-18T16:59:09.308Z,440
2016-08-18T17:00:09.026Z,445
2016-08-18T17:01:10.648Z,440
2016-08-18T17:02:09.377Z,445
2016-08-18T17:03:09.031Z,445
2016-08-18T17:04:10.152Z,440
2016-08-18T17:05:07.476Z,430
2016-08-18T17:06:10.743Z,430
2016-08-18T17:07:08.179Z,435
2016-08-18T17:08:09.910Z,425
2016-08-18T17:09:07.558Z,415
2016-08-18T17:10:09.110Z,420
2016-08-18T17:11:07.967Z,410
2016-08-18T17:12:09.924Z,400
2016-08-18T17:13:07.721Z,390
2016-08-18T17:14:08.450Z,380
2016-08-18T17:15:07.513Z,375
2016-08-18T17:16:09.479Z,380
2016-08-18T17:17:09.236Z,375
2016-08-18T17:18:11.260Z,360
2016-08-18T17:19:10.465Z,330
2016-08-18T17:20:09.206Z,290
2016-08-18T17:21:09.260Z,280
2016-08-18T17:22:08.814Z,285
2016-08-18T17:23:07.941Z,320
2016-08-18T17:24:10.355Z,365
2016-08-18T17:25:10.114Z,375
2016-08-18T17:26:08.261Z,370
2016-08-18T17:27:08.398Z,365
2016-08-18T17:28:09.447Z,365
2016-08-18T17:29:08.516Z,360
2016-08-18T17:30:08.815Z,350
2016-08-18T17:31:11.141Z,335
2016-08-18T17:32:11.718Z,310
2016-08-18T17:33:08.661Z,290
2016-08-18T17:34:11.173Z,275
2016-08-18T17:35:07.798Z,270
2016-08-18T17:36:09.773Z,265
2016-08-18T17:37:11.289Z,265
2016-08-18T17:38:10.010Z,260
2016-08-18T17:39:10.252Z,260
2016-08-18T17:40:10.549Z,250
2016-08-18T17:41:10.224Z,245
2016-08-18T17:42:12.769Z,240
2016-08-18T17:43:07.837Z,235
2016-08-18T17:44:08.634Z,230
2016-08-18T17:45:09.537Z,225
2016-08-18T17:46:11.160Z,220
2016-08-18T17:47:09.509Z,215
2016-08-18T17:48:09.446Z,195
2016-08-18T17:49:09.031Z,175
2016-08-18T17:50:10.002Z,165
2016-08-18T17:51:09.517Z,165
2016-08-18T17:52:09.563Z,160
2016-08-18T17:53:10.673Z,155
2016-08-18T17:54:09.678Z,155
2016-08-18T17:55:09.813Z,150
2016-08-18T17:56:11.613Z,145
2016-08-18T17:57:11.075Z,145
2016-08-18T17:58:12.069Z,140
2016-08-18T17:59:10.029Z,140
2016-08-18T18:00:09.807Z,140
2016-08-18T18:01:10.430Z,135
2016-08-18T18:02:09.876Z,130
2016-08-18T18:03:10.805Z,130
2016-08-18T18:04:11.678Z,125
2016-08-18T18:05:12.490Z,120
2016-08-18T18:06:11.069Z,120
2016-08-18T18:07:10.420Z,115
2016-08-18T18:08:10.163Z,110
2016-08-18T18:09:11.379Z,110
2016-08-18T18:10:11.098Z,105
2016-08-18T18:11:10.234Z,100
2016-08-18T18:12:10.773Z,100
2016-08-18T18:13:10.280Z,95
2016-08-18T18:14:12.471Z,90
2016-08-18T18:15:12.170Z,90
2016-08-18T18:16:11.999Z,85
2016-08-18T18:17:11.609Z,80
2016-08-18T18:18:10.945Z,80
2016-08-18T18:19:09.856Z,75
2016-08-18T18:20:12.150Z,70
2016-08-18T18:21:11.136Z,70
2016-08-18T18:22:12.146Z,65
2016-08-18T18:23:12.068Z,60
2016-08-18T18:24:12.187Z,60
2016-08-18T18:25:13.916Z,55
2016-08-18T18:26:10.188Z,55
2016-08-18T18:27:11.225Z,50
2016-08-18T18:28:14.222Z,45
2016-08-18T18:29:10.325Z,45
2016-08-18T18:30:09.809Z,40
2016-08-18T18:31:11.081Z,40
2016-08-18T18:32:10.184Z,35
2016-08-18T18:33:11.547Z,35
2016-08-18T18:34:11.388Z,30
2016-08-18T18:35:10.200Z,30
2016-08-18T18:36:13.026Z,25
2016-08-18T18:37:12.274Z,25
2016-08-18T18:38:10.636Z,25
2016-08-18T18:39:12.389Z,20
2016-08-18T18:40:12.154Z,20
2016-08-18T18:41:11.254Z,15
2016-08-18T18:42:12.369Z,15
2016-08-18T18:43:11.388Z,15
2016-08-18T18:44:12.152Z,10
2016-08-18T18:45:11.893Z,10
2016-08-18T18:46:11.704Z,10
2016-08-18T18:47:10.534Z,10
2016-08-18T18:48:11.296Z,10
2016-08-18T18:49:11.865Z,5
2016-08-18T18:50:12.559Z,5
2016-08-18T18:51:12.069Z,5
2016-08-18T18:52:13.419Z,5
2016-08-18T18:53:11.257Z,5
2016-08-18T18:54:11.928Z,5
2016-08-18T18:55:12.236Z,0
2016-08-18T18:56:11.933Z,0
2016-08-18T18:57:13.067Z,0
2016-08-18T18:58:15.583Z,0
2016-08-18T18:59:13.448Z,0
2016-08-18T19:00:12.794Z,0
2016-08-18T19:01:13.053Z,0
2016-08-18T19:02:12.022Z,0
2016-08-18T19:03:12.296Z,0
2016-08-18T19:04:13.781Z,0
2016-08-18T19:05:12.687Z,0
2016-08-18T19:06:10.394Z,0
2016-08-18T19:07:13.682Z,0
2016-08-18T19:08:11.929Z,0
2016-08-18T19:09:13.090Z,0
2016-08-18T19:10:12.308Z,0
2016-08-18T19:11:13.626Z,0
2016-08-18T19:12:14.867Z,0
2016-08-18T19:13:12.575Z,0
2016-08-18T19:14:12.894Z,0
2016-08-18T19:15:12.779Z,0
2016-08-18T19:16:14.191Z,0
2016-08-18T19:17:12.594Z,0
2016-08-18T19:18:14.170Z,0
2016-08-18T19:19:12.493Z,0
2016-08-18T19:20:12.970Z,0
2016-08-18T19:21:12.888Z,0
2016-08-18T19:22:13.086Z,0
2016-08-18T19:23:12.901Z,0
2016-08-18T19:24:12.788Z,0
2016-08-18T19:25:12.554Z,0
2016-08-18T19:26:12.563Z,0
2016-08-18T19:27:12.521Z,0
2016-08-18T19:28:13.167Z,0
2016-08-18T19:29:12.794Z,0
2016-08-18T19:30:13.429Z,0
2016-08-18T19:31:13.099Z,0
2016-08-18T19:32:12.494Z,0
2016-08-18T19:33:13.685Z,0
2016-08-18T19:34:16.912Z,0
2016-08-18T19:35:15.468Z,0
2016-08-18T19:36:14.612Z,0
2016-08-18T19:37:14.567Z,0
2016-08-18T19:38:13.124Z,0
2016-08-18T19:39:11.606Z,0
2016-08-18T19:40:13.841Z,0
2016-08-18T19:41:13.410Z,0
2016-08-18T19:42:15.464Z,0
2016-08-18T19:43:14.312Z,0
2016-08-18T19:44:14.577Z,0
2016-08-18T19:45:12.593Z,0
2016-08-18T19:46:14.101Z,0
2016-08-18T19:47:15.463Z,0
2016-08-18T19:48:13.086Z,0
2016-08-18T19:49:16.664Z,0
2016-08-18T19:50:13.867Z,0
2016-08-18T19:51:15.358Z,0
2016-08-18T19:52:15.482Z,0
2016-08-18T19:53:14.445Z,0
2016-08-18T19:54:14.250Z,0
2016-08-18T19:55:14.722Z,0
2016-08-18T19:56:14.774Z,0
2016-08-18T19:57:13.356Z,0
2016-08-18T19:58:13.447Z,0
2016-08-18T19:59:13.596Z,0
2016-08-18T20:00:14.022Z,0
2016-08-18T20:01:13.705Z,0
2016-08-18T20:02:13.398Z,0
2016-08-18T20:03:14.629Z,0
2016-08-18T20:04:14.118Z,0
2016-08-18T20:05:13.869Z,0
2016-08-18T20:06:14.702Z,0
2016-08-18T20:07:13.721Z,0
2016-08-18T20:08:12.587Z,0
2016-08-18T20:09:14.250Z,0
2016-08-18T20:10:14.532Z,0
2016-08-18T20:11:15.392Z,0
2016-08-18T20:12:13.290Z,0
2016-08-18T20:13:14.190Z,0
2016-08-18T20:14:13.199Z,0
2016-08-18T20:15:14.279Z,0
2016-08-18T20:16:14.141Z,0
2016-08-18T20:17:15.786Z,0
2016-08-18T20:18:14.093Z,0
2016-08-18T20:19:15.605Z,0
2016-08-18T20:20:16.056Z,0
2016-08-18T20:21:14.658Z,0
2016-08-18T20:22:14.496Z,0
2016-08-18T20:23:15.257Z,0
2016-08-18T20:24:14.237Z,0
2016-08-18T20:25:13.690Z,0